Time;durP1;ratioP1;P1;durP2;ratioP2;P2;SDS_P1;SDS_P2;PMS_P1;PMS_P2;Temp;Humidity;BMP_temperature;BMP_pressure;BME280_temperature;BME280_humidity;BME280_pressure;Samples;Min_cycle;Max_cycle;Signal;HPM_P1;HPM_P2
2021/09/28 00:02:22;;;;;;;1.17;0.50;;;16.30;99.90;;;;;;5035035;28;20063;-86
2021/09/28 00:04:48;;;;;;;0.68;0.50;;;16.30;99.90;;;;;;5034892;28;20028;-85
2021/09/28 00:07:16;;;;;;;1.85;0.68;;;16.40;99.90;;;;;;5034849;28;20033;-85
2021/09/28 00:09:42;;;;;;;2.47;0.70;;;16.20;99.90;;;;;;5034876;28;20476;-86
2021/09/28 00:12:08;;;;;;;0.93;0.60;;;16.10;99.90;;;;;;5034739;28;20028;-84
2021/09/28 00:14:34;;;;;;;0.95;0.40;;;16.10;99.90;;;;;;5034749;28;20025;-85
2021/09/28 00:17:00;;;;;;;1.77;0.60;;;16.30;99.90;;;;;;5035509;28;20075;-85
2021/09/28 00:19:26;;;;;;;0.75;0.50;;;16.30;99.90;;;;;;5034700;28;20071;-84
2021/09/28 00:21:51;;;;;;;1.40;0.63;;;16.30;99.90;;;;;;5035016;28;20032;-87
2021/09/28 00:24:18;;;;;;;0.85;0.40;;;16.30;99.90;;;;;;5054910;28;20120;-87
2021/09/28 00:26:43;;;;;;;3.60;0.63;;;16.30;99.90;;;;;;5038257;28;20060;-84
2021/09/28 00:29:09;;;;;;;0.75;0.50;;;16.20;99.90;;;;;;5038319;28;20025;-84
2021/09/28 00:31:35;;;;;;;1.77;0.60;;;16.20;99.90;;;;;;5038179;28;20031;-87
2021/09/28 00:34:01;;;;;;;0.95;0.50;;;16.20;99.90;;;;;;5056290;28;20025;-85
2021/09/28 00:36:27;;;;;;;1.33;0.50;;;16.20;99.90;;;;;;5038186;28;20040;-85
2021/09/28 00:38:53;;;;;;;2.00;0.60;;;16.10;99.90;;;;;;5037951;28;20476;-85
2021/09/28 00:41:19;;;;;;;0.70;0.60;;;16.10;99.90;;;;;;5038031;28;20021;-86
2021/09/28 00:43:51;;;;;;;1.10;0.57;;;16.10;99.90;;;;;;5018114;28;20124;-85
2021/09/28 00:46:17;;;;;;;1.33;0.70;;;16.10;99.90;;;;;;5014799;28;20125;-85
2021/09/28 00:48:44;;;;;;;1.45;0.45;;;16.10;99.90;;;;;;5014826;28;20053;-86
2021/09/28 00:51:12;;;;;;;1.48;0.65;;;16.20;99.90;;;;;;5015252;28;20026;-86
2021/09/28 00:53:42;;;;;;;1.05;0.50;;;16.10;99.90;;;;;;5014667;28;20018;-86
2021/09/28 00:56:20;;;;;;;0.77;0.40;;;16.00;99.90;;;;;;5014679;28;20026;-85
2021/09/28 00:58:46;;;;;;;0.73;0.40;;;16.00;99.90;;;;;;5014727;28;20053;-86
2021/09/28 01:01:14;;;;;;;2.05;0.52;;;16.10;99.90;;;;;;5014459;28;20026;-86
2021/09/28 01:03:40;;;;;;;2.78;0.60;;;15.90;99.90;;;;;;5014538;28;20541;-86
2021/09/28 01:06:06;;;;;;;1.58;0.52;;;15.80;99.90;;;;;;5014528;28;20033;-85
2021/09/28 01:08:32;;;;;;;2.53;0.55;;;15.90;99.90;;;;;;5014490;28;20037;-85
2021/09/28 01:10:58;;;;;;;3.30;0.45;;;16.10;99.90;;;;;;5014341;28;20036;-86
2021/09/28 01:13:25;;;;;;;1.25;0.57;;;16.10;99.90;;;;;;5015158;28;20025;-86
2021/09/28 01:16:00;;;;;;;1.90;0.50;;;16.10;99.90;;;;;;5014362;28;20033;-85
2021/09/28 01:18:27;;;;;;;2.38;0.50;;;16.00;99.90;;;;;;5014364;28;20053;-85
2021/09/28 01:20:53;;;;;;;1.13;0.50;;;16.00;99.90;;;;;;4999739;28;20026;-84
2021/09/28 01:23:19;;;;;;;1.58;0.43;;;16.00;99.90;;;;;;5020250;28;20048;-85
2021/09/28 01:25:45;;;;;;;1.80;0.50;;;16.00;99.90;;;;;;5017070;28;20026;-86
2021/09/28 01:28:10;;;;;;;1.65;0.47;;;15.90;99.90;;;;;;5014564;28;20030;-86
2021/09/28 01:30:36;;;;;;;4.10;0.70;;;15.90;99.90;;;;;;5014535;28;20026;-85
2021/09/28 01:33:02;;;;;;;1.17;0.50;;;15.90;99.90;;;;;;5015312;28;20148;-85
2021/09/28 01:35:29;;;;;;;3.78;0.75;;;15.80;99.90;;;;;;5014546;28;20018;-85
2021/09/28 01:37:55;;;;;;;2.97;0.60;;;15.80;99.90;;;;;;5013811;28;20029;-85
2021/09/28 01:40:21;;;;;;;6.93;0.73;;;15.60;99.90;;;;;;5013891;28;20061;-86
2021/09/28 01:42:47;;;;;;;3.13;0.82;;;15.60;99.90;;;;;;5013607;28;20088;-85
2021/09/28 01:45:12;;;;;;;2.80;0.68;;;15.60;99.90;;;;;;5015028;28;20037;-86
2021/09/28 01:47:39;;;;;;;3.95;1.38;;;15.70;99.90;;;;;;5013715;28;20022;-85
2021/09/28 01:50:06;;;;;;;1.98;0.73;;;15.70;99.90;;;;;;5013703;28;20022;-86
2021/09/28 01:52:36;;;;;;;3.03;0.68;;;15.60;99.90;;;;;;5013737;28;20030;-85
2021/09/28 01:55:04;;;;;;;3.55;0.80;;;15.80;99.90;;;;;;5013903;28;20076;-85
2021/09/28 01:57:30;;;;;;;2.88;0.80;;;15.80;99.90;;;;;;5014811;28;20034;-85
2021/09/28 01:59:55;;;;;;;4.57;1.00;;;15.70;99.90;;;;;;5013497;28;20028;-85
2021/09/28 02:02:21;;;;;;;3.65;0.73;;;15.50;99.90;;;;;;5013704;28;20486;-85
2021/09/28 02:04:47;;;;;;;2.40;0.63;;;15.40;99.90;;;;;;5013947;28;20374;-86
2021/09/28 02:07:13;;;;;;;3.42;0.63;;;15.50;99.90;;;;;;5013354;28;20122;-86
2021/09/28 02:09:39;;;;;;;2.78;0.80;;;15.70;99.90;;;;;;5013321;28;20037;-86
2021/09/28 02:12:05;;;;;;;3.63;0.85;;;15.60;99.90;;;;;;5013270;28;20031;-86
2021/09/28 02:14:31;;;;;;;2.65;0.95;;;15.80;99.90;;;;;;5013231;28;20567;-85
2021/09/28 02:16:57;;;;;;;1.45;0.70;;;15.70;99.90;;;;;;5013129;28;20026;-86
2021/09/28 02:19:24;;;;;;;1.20;0.50;;;15.80;99.90;;;;;;5013128;28;20030;-85
2021/09/28 02:21:50;;;;;;;3.15;1.00;;;16.10;99.90;;;;;;5013664;28;20022;-85
2021/09/28 02:24:16;;;;;;;5.22;0.80;;;16.10;99.90;;;;;;5014310;28;20033;-85
2021/09/28 02:26:45;;;;;;;2.50;0.70;;;16.00;99.90;;;;;;5013050;28;20030;-85
2021/09/28 02:29:11;;;;;;;3.45;1.25;;;16.00;99.90;;;;;;5013283;28;20057;-86
2021/09/28 02:31:38;;;;;;;2.72;0.70;;;15.80;99.90;;;;;;5012874;28;20022;-84
2021/09/28 02:34:06;;;;;;;6.30;0.90;;;15.80;99.90;;;;;;5012857;28;20109;-85
2021/09/28 02:36:36;;;;;;;6.53;1.13;;;15.80;99.90;;;;;;5012892;28;20022;-85
2021/09/28 02:39:04;;;;;;;2.45;0.80;;;15.70;99.90;;;;;;5012711;28;20030;-85
2021/09/28 02:41:30;;;;;;;3.80;0.75;;;15.60;99.90;;;;;;5014045;28;20022;-85
2021/09/28 02:43:56;;;;;;;2.78;0.90;;;15.70;99.90;;;;;;5012765;28;20072;-85
2021/09/28 02:46:22;;;;;;;5.03;0.90;;;15.70;99.90;;;;;;5013037;28;20021;-85
2021/09/28 02:48:48;;;;;;;3.22;0.70;;;15.80;99.90;;;;;;5011772;28;20029;-85
2021/09/28 02:51:14;;;;;;;1.98;0.77;;;15.90;99.90;;;;;;5012452;28;20049;-85
2021/09/28 02:53:39;;;;;;;1.88;0.63;;;15.80;99.90;;;;;;5012929;28;20026;-86
2021/09/28 02:56:05;;;;;;;7.07;0.93;;;15.70;99.90;;;;;;5012497;28;20386;-85
2021/09/28 02:58:31;;;;;;;2.22;0.70;;;15.40;99.90;;;;;;5014428;28;20072;-86
2021/09/28 03:00:57;;;;;;;3.13;0.70;;;15.50;99.90;;;;;;5012796;28;20029;-85
2021/09/28 03:03:22;;;;;;;2.72;0.80;;;15.60;99.90;;;;;;5012627;28;20501;-85
2021/09/28 03:05:48;;;;;;;3.10;1.00;;;15.70;99.90;;;;;;5012794;28;20026;-85
2021/09/28 03:08:14;;;;;;;4.10;1.15;;;15.80;99.90;;;;;;5012693;28;20018;-85
2021/09/28 03:10:40;;;;;;;2.45;0.80;;;15.70;99.90;;;;;;5012747;28;20033;-85
2021/09/28 03:13:07;;;;;;;5.97;1.20;;;15.70;99.90;;;;;;5012343;28;20560;-85
2021/09/28 03:15:33;;;;;;;6.35;0.70;;;15.60;99.90;;;;;;5013671;28;20025;-85
2021/09/28 03:17:59;;;;;;;6.07;0.80;;;15.60;99.90;;;;;;5012379;28;20022;-85
2021/09/28 03:20:25;;;;;;;4.18;1.08;;;15.60;99.90;;;;;;5012665;28;20022;-85
2021/09/28 03:22:50;;;;;;;6.15;0.90;;;15.60;99.90;;;;;;5012510;28;20037;-85
2021/09/28 03:25:16;;;;;;;2.83;0.80;;;15.40;99.90;;;;;;5012429;28;20489;-85
2021/09/28 03:27:42;;;;;;;3.45;0.80;;;15.30;99.90;;;;;;5013982;28;20025;-85
2021/09/28 03:30:09;;;;;;;2.15;0.95;;;15.30;99.90;;;;;;5013562;28;20481;-85
2021/09/28 03:32:36;;;;;;;5.93;0.85;;;15.40;99.90;;;;;;5015461;28;20358;-84
2021/09/28 03:35:09;;;;;;;3.83;0.85;;;15.10;99.90;;;;;;5014431;28;20109;-85
2021/09/28 03:37:38;;;;;;;3.45;0.98;;;15.20;99.90;;;;;;5013280;28;20114;-85
2021/09/28 03:40:06;;;;;;;2.10;0.70;;;15.30;99.90;;;;;;5013692;28;20489;-85
2021/09/28 03:42:32;;;;;;;5.28;0.95;;;15.10;99.90;;;;;;5012130;28;20053;-84
2021/09/28 03:44:58;;;;;;;2.50;0.88;;;15.10;99.90;;;;;;5012250;28;20550;-85
2021/09/28 03:47:23;;;;;;;2.42;0.70;;;15.10;99.90;;;;;;5012140;28;20037;-85
2021/09/28 03:49:49;;;;;;;4.32;1.10;;;15.20;99.90;;;;;;5012252;28;20032;-85
2021/09/28 03:52:15;;;;;;;3.50;0.77;;;15.30;99.90;;;;;;5012086;28;20026;-85
2021/09/28 03:54:41;;;;;;;5.13;1.10;;;15.30;99.90;;;;;;5012126;28;20474;-85
2021/09/28 03:57:07;;;;;;;4.00;0.65;;;15.20;99.90;;;;;;5012063;28;20026;-85
2021/09/28 03:59:32;;;;;;;4.63;0.98;;;15.20;99.90;;;;;;5014221;28;20026;-85
2021/09/28 04:01:58;;;;;;;3.00;0.85;;;15.30;99.90;;;;;;5016022;28;20053;-85
2021/09/28 04:04:24;;;;;;;2.92;0.90;;;15.40;99.90;;;;;;5015965;28;20033;-85
2021/09/28 04:06:50;;;;;;;5.82;0.80;;;15.30;99.90;;;;;;5015685;28;20029;-85
2021/09/28 04:09:15;;;;;;;2.90;0.80;;;15.10;99.90;;;;;;5015607;28;20528;-84
2021/09/28 04:11:41;;;;;;;3.30;0.70;;;14.80;99.90;;;;;;5015551;28;20049;-84
2021/09/28 04:14:09;;;;;;;3.45;0.88;;;14.50;99.90;;;;;;5015530;28;20036;-85
2021/09/28 04:16:36;;;;;;;2.47;0.80;;;14.40;99.90;;;;;;5015634;28;20018;-85
2021/09/28 04:19:02;;;;;;;3.13;0.88;;;14.20;99.90;;;;;;5015555;28;20026;-85
2021/09/28 04:21:28;;;;;;;4.18;0.88;;;14.10;99.90;;;;;;5016167;28;20034;-85
2021/09/28 04:23:54;;;;;;;5.47;0.75;;;14.10;99.90;;;;;;5015382;28;20030;-85
2021/09/28 04:26:20;;;;;;;2.40;0.50;;;14.00;99.90;;;;;;5015406;28;20026;-85
2021/09/28 04:28:46;;;;;;;5.40;0.82;;;13.90;99.90;;;;;;5015597;28;20053;-85
2021/09/28 04:31:14;;;;;;;5.57;0.82;;;13.90;99.90;;;;;;5015213;28;20030;-85
2021/09/28 04:33:40;;;;;;;8.40;1.25;;;14.00;99.90;;;;;;5015537;28;20022;-85
2021/09/28 04:36:06;;;;;;;4.25;0.88;;;14.00;99.90;;;;;;5015391;28;20374;-84
2021/09/28 04:38:32;;;;;;;3.65;1.00;;;14.10;99.90;;;;;;5015161;28;20515;-84
2021/09/28 04:40:58;;;;;;;4.38;1.00;;;14.10;99.90;;;;;;5014976;28;20018;-84
2021/09/28 04:43:24;;;;;;;5.10;1.00;;;14.10;99.90;;;;;;5014835;28;20104;-84
2021/09/28 04:45:50;;;;;;;4.45;0.65;;;14.40;99.90;;;;;;5015190;28;20026;-84
2021/09/28 04:48:15;;;;;;;5.07;0.80;;;14.50;99.90;;;;;;5015188;28;20061;-84
2021/09/28 04:50:41;;;;;;;4.18;1.00;;;14.40;99.90;;;;;;5015028;28;20113;-85
2021/09/28 04:53:07;;;;;;;4.38;1.00;;;14.10;99.90;;;;;;5014817;28;20058;-85
2021/09/28 04:55:33;;;;;;;2.78;0.88;;;14.10;99.90;;;;;;5014837;28;20394;-84
2021/09/28 04:57:58;;;;;;;1.48;0.75;;;14.10;99.90;;;;;;5014788;28;20018;-86
2021/09/28 05:00:24;;;;;;;3.70;0.88;;;14.00;99.90;;;;;;5014660;28;20049;-87
2021/09/28 05:02:50;;;;;;;3.53;0.80;;;14.00;99.90;;;;;;5014664;28;20037;-86
2021/09/28 05:05:16;;;;;;;2.35;0.93;;;14.10;99.90;;;;;;5014670;28;20054;-86
2021/09/28 05:07:42;;;;;;;2.22;0.77;;;14.10;99.90;;;;;;5014674;28;20038;-86
2021/09/28 05:10:08;;;;;;;2.78;0.77;;;14.20;99.90;;;;;;5014157;28;20552;-86
2021/09/28 05:12:35;;;;;;;2.92;0.77;;;14.00;99.90;;;;;;5013880;28;20030;-86
2021/09/28 05:15:01;;;;;;;3.58;0.85;;;13.70;99.90;;;;;;5014357;28;20524;-86
2021/09/28 05:17:26;;;;;;;7.55;1.10;;;13.50;99.90;;;;;;5014213;28;20030;-87
2021/09/28 05:19:52;;;;;;;4.32;0.77;;;13.30;99.90;;;;;;5014234;28;20044;-86
2021/09/28 05:22:18;;;;;;;3.42;0.90;;;13.20;99.90;;;;;;5014204;28;20030;-86
2021/09/28 05:24:44;;;;;;;6.28;1.00;;;13.30;99.90;;;;;;5014719;28;20026;-86
2021/09/28 05:27:09;;;;;;;8.20;1.20;;;13.10;99.90;;;;;;5014476;28;20022;-86
2021/09/28 05:29:35;;;;;;;3.67;0.90;;;13.00;99.90;;;;;;5015576;28;20090;-86
2021/09/28 05:32:01;;;;;;;5.15;0.85;;;13.20;99.90;;;;;;5014073;28;20030;-87
2021/09/28 05:34:27;;;;;;;4.50;0.88;;;13.30;99.90;;;;;;5014098;28;20030;-86
2021/09/28 05:36:52;;;;;;;3.17;0.90;;;13.40;99.90;;;;;;5013949;28;20108;-86
2021/09/28 05:39:19;;;;;;;2.75;1.02;;;13.50;99.90;;;;;;5014943;28;20034;-86
2021/09/28 05:41:45;;;;;;;5.00;0.95;;;13.50;99.90;;;;;;5013932;28;20048;-86
2021/09/28 05:44:11;;;;;;;3.08;0.93;;;13.50;99.90;;;;;;5017215;28;20046;-87
2021/09/28 05:46:37;;;;;;;5.82;1.00;;;13.40;99.90;;;;;;5017211;28;20033;-86
2021/09/28 05:49:03;;;;;;;4.95;0.77;;;13.70;99.90;;;;;;5015353;28;20121;-87
2021/09/28 05:51:32;;;;;;;3.38;0.80;;;13.80;99.90;;;;;;5014085;28;20109;-87
2021/09/28 05:54:00;;;;;;;3.80;0.90;;;13.60;99.90;;;;;;5013707;28;20113;-87
2021/09/28 05:56:26;;;;;;;2.60;0.68;;;13.70;99.90;;;;;;5013710;28;20022;-87
2021/09/28 05:58:52;;;;;;;2.42;0.60;;;13.90;99.90;;;;;;5013813;28;20528;-87
2021/09/28 06:01:18;;;;;;;2.17;0.60;;;13.70;99.90;;;;;;5013637;28;20450;-87
2021/09/28 06:03:43;;;;;;;4.90;0.70;;;13.50;99.90;;;;;;5013583;28;20026;-87
2021/09/28 06:06:09;;;;;;;3.45;0.90;;;13.60;99.90;;;;;;5013465;28;20378;-87
2021/09/28 06:08:35;;;;;;;2.63;0.80;;;13.80;99.90;;;;;;5013476;28;20026;-87
2021/09/28 06:11:02;;;;;;;3.80;0.80;;;13.60;99.90;;;;;;5013287;28;20025;-87
2021/09/28 06:13:28;;;;;;;11.43;1.10;;;13.40;99.90;;;;;;5013419;28;20367;-87
2021/09/28 06:15:54;;;;;;;3.33;1.00;;;13.20;99.90;;;;;;5013431;28;20080;-87
2021/09/28 06:18:20;;;;;;;3.30;0.88;;;13.20;99.90;;;;;;5013394;28;20026;-87
2021/09/28 06:20:46;;;;;;;3.03;0.98;;;13.40;99.90;;;;;;5014232;28;20022;-87
2021/09/28 06:23:13;;;;;;;4.47;0.98;;;13.60;99.90;;;;;;5016893;28;20418;-87
2021/09/28 06:25:39;;;;;;;6.57;1.10;;;13.70;99.90;;;;;;5013317;28;20060;-86
2021/09/28 06:28:05;;;;;;;7.35;0.90;;;13.80;99.90;;;;;;5014653;28;20061;-86
2021/09/28 06:30:31;;;;;;;3.47;0.70;;;13.80;99.90;;;;;;5013111;28;20026;-86
2021/09/28 06:32:56;;;;;;;6.40;1.20;;;13.70;99.90;;;;;;5014247;28;20057;-86
2021/09/28 06:35:24;;;;;;;5.55;0.70;;;13.60;99.90;;;;;;5014173;28;20018;-86
2021/09/28 06:37:50;;;;;;;8.65;0.88;;;13.50;99.90;;;;;;5012857;28;20033;-86
2021/09/28 06:40:16;;;;;;;3.85;0.82;;;13.70;99.90;;;;;;5012838;28;20486;-86
2021/09/28 06:42:41;;;;;;;5.75;1.10;;;14.10;99.90;;;;;;5012697;28;20053;-86
2021/09/28 06:45:07;;;;;;;10.50;1.20;;;14.20;99.90;;;;;;5012732;28;20032;-86
2021/09/28 06:47:34;;;;;;;5.40;1.00;;;14.40;99.90;;;;;;5012814;28;20108;-86
2021/09/28 06:50:00;;;;;;;3.47;0.90;;;14.30;99.90;;;;;;5013682;28;20129;-87
2021/09/28 06:52:25;;;;;;;3.95;1.20;;;14.50;99.90;;;;;;5012732;28;20117;-86
2021/09/28 06:54:51;;;;;;;10.10;1.33;;;14.60;99.90;;;;;;5013276;28;20048;-86
2021/09/28 06:57:17;;;;;;;6.38;1.30;;;14.70;99.90;;;;;;5013888;28;20053;-86
2021/09/28 06:59:43;;;;;;;5.95;0.90;;;14.60;99.90;;;;;;5012599;28;20112;-86
2021/09/28 07:02:09;;;;;;;2.80;1.00;;;14.60;99.90;;;;;;5012506;28;20584;-86
2021/09/28 07:04:34;;;;;;;3.67;1.02;;;14.60;99.90;;;;;;5013597;28;20026;-86
2021/09/28 07:07:01;;;;;;;3.78;0.95;;;14.60;99.90;;;;;;5012316;28;20025;-86
2021/09/28 07:09:28;;;;;;;4.32;1.10;;;14.70;99.90;;;;;;5012395;28;20030;-86
2021/09/28 07:11:53;;;;;;;7.93;1.00;;;14.90;99.90;;;;;;5014824;28;20030;-86
2021/09/28 07:14:19;;;;;;;7.53;1.27;;;14.90;99.90;;;;;;5012519;28;20470;-86
2021/09/28 07:16:45;;;;;;;7.13;1.30;;;14.80;99.90;;;;;;5012440;28;20041;-86
2021/09/28 07:19:11;;;;;;;8.15;1.30;;;15.00;99.90;;;;;;5012744;28;20022;-86
2021/09/28 07:21:37;;;;;;;2.53;0.93;;;15.10;99.90;;;;;;5012332;28;20033;-86
2021/09/28 07:24:04;;;;;;;9.05;1.30;;;15.40;99.90;;;;;;5012325;28;20046;-86
2021/09/28 07:26:30;;;;;;;3.40;1.10;;;15.50;99.90;;;;;;5013555;28;20049;-86
2021/09/28 07:28:56;;;;;;;6.60;1.58;;;15.70;99.90;;;;;;5012394;28;20433;-86
2021/09/28 07:31:22;;;;;;;6.57;1.38;;;15.90;99.90;;;;;;5012225;28;20038;-86
2021/09/28 07:33:48;;;;;;;5.40;1.67;;;16.00;99.90;;;;;;5012949;28;20021;-86
2021/09/28 07:36:13;;;;;;;4.70;1.13;;;15.90;99.90;;;;;;5016444;28;20041;-86
2021/09/28 07:38:40;;;;;;;6.05;1.30;;;15.80;99.90;;;;;;5015957;28;20140;-85
2021/09/28 07:41:06;;;;;;;8.68;1.45;;;15.90;99.90;;;;;;5016228;28;20022;-86
2021/09/28 07:43:32;;;;;;;5.95;1.20;;;16.10;99.90;;;;;;5015873;28;20057;-86
2021/09/28 07:45:59;;;;;;;6.72;1.30;;;16.00;99.90;;;;;;5016082;28;20022;-86
2021/09/28 07:48:25;;;;;;;8.32;1.33;;;16.00;99.90;;;;;;5016088;28;20022;-86
2021/09/28 07:50:52;;;;;;;4.30;1.30;;;16.10;99.90;;;;;;5015963;28;20101;-88
2021/09/28 07:53:17;;;;;;;11.43;1.23;;;16.30;99.90;;;;;;5018882;28;20521;-85
2021/09/28 07:55:43;;;;;;;7.28;1.10;;;16.00;99.90;;;;;;5021659;28;20026;-85
2021/09/28 07:58:09;;;;;;;5.88;1.13;;;16.10;99.90;;;;;;5027041;28;20018;-85
2021/09/28 08:00:38;;;;;;;5.38;1.45;;;16.50;99.90;;;;;;5021119;28;20022;-86
2021/09/28 08:03:04;;;;;;;5.40;1.20;;;16.70;99.90;;;;;;5016391;28;20504;-86
2021/09/28 08:05:30;;;;;;;7.90;1.20;;;16.90;99.90;;;;;;5015925;28;20119;-86
2021/09/28 08:07:55;;;;;;;4.97;1.40;;;17.00;99.90;;;;;;5015762;28;20508;-86
2021/09/28 08:10:21;;;;;;;4.68;1.15;;;17.20;99.90;;;;;;5015604;28;20033;-86
2021/09/28 08:12:47;;;;;;;3.30;1.02;;;17.60;99.90;;;;;;5015504;28;20034;-86
2021/09/28 08:15:12;;;;;;;6.20;1.48;;;17.80;99.90;;;;;;5015491;28;20053;-87
2021/09/28 08:17:38;;;;;;;7.25;1.63;;;17.80;99.90;;;;;;5015460;28;20033;-86
2021/09/28 08:20:08;;;;;;;7.00;1.38;;;17.80;99.90;;;;;;5015477;28;20028;-86
2021/09/28 08:22:37;;;;;;;12.55;1.83;;;17.80;99.90;;;;;;5015373;28;20032;-86
2021/09/28 08:25:08;;;;;;;6.03;1.30;;;18.20;99.90;;;;;;5015388;28;20103;-86
2021/09/28 08:30:18;;;;;;;6.45;1.20;;;18.70;99.90;;;;;;5017120;28;20124;-86
2021/09/28 08:32:44;;;;;;;7.47;1.13;;;18.80;99.90;;;;;;5015288;28;20473;-86
2021/09/28 08:35:10;;;;;;;8.18;1.45;;;19.10;99.90;;;;;;5015247;28;20025;-86
2021/09/28 08:37:36;;;;;;;8.20;1.23;;;19.30;99.90;;;;;;5015171;28;20508;-86
2021/09/28 08:40:02;;;;;;;4.78;1.10;;;19.60;99.90;;;;;;5015135;28;20072;-86
2021/09/28 08:42:28;;;;;;;5.03;1.15;;;19.70;99.90;;;;;;5027554;28;20048;-86
2021/09/28 08:44:54;;;;;;;8.00;1.63;;;19.40;99.90;;;;;;5037872;28;20024;-86
2021/09/28 08:47:41;;;;;;;7.47;1.10;;;19.00;99.90;;;;;;5037129;28;20033;-86
2021/09/28 08:50:18;;;;;;;4.50;1.00;;;19.00;99.90;;;;;;5038040;28;20587;-86
2021/09/28 08:52:46;;;;;;;5.93;1.35;;;19.40;99.90;;;;;;5037941;28;20056;-86
2021/09/28 08:55:13;;;;;;;2.88;1.10;;;20.10;99.90;;;;;;5038314;28;20049;-86
2021/09/28 08:57:41;;;;;;;9.48;1.40;;;20.10;99.90;;;;;;5038157;28;20021;-86
2021/09/28 09:00:16;;;;;;;4.70;0.93;;;19.70;99.90;;;;;;5038827;28;20028;-86
2021/09/28 09:02:43;;;;;;;7.00;1.00;;;19.90;99.90;;;;;;5038118;28;20075;-86
2021/09/28 09:05:14;;;;;;;9.68;1.83;;;20.00;99.90;;;;;;5037870;28;20472;-86
2021/09/28 09:07:41;;;;;;;3.63;1.00;;;20.00;99.90;;;;;;5037760;28;20029;-86
2021/09/28 09:10:08;;;;;;;7.75;1.40;;;20.20;99.90;;;;;;5037674;28;20029;-86
2021/09/28 09:12:39;;;;;;;7.32;1.52;;;19.80;99.90;;;;;;5037582;28;20035;-86
2021/09/28 09:15:23;;;;;;;7.03;1.60;;;19.30;99.90;;;;;;5037906;28;20021;-86
2021/09/28 09:17:51;;;;;;;9.35;1.40;;;19.20;99.90;;;;;;5037574;28;20025;-86
2021/09/28 09:20:27;;;;;;;7.00;1.42;;;19.10;99.90;;;;;;5055481;28;20025;-86
2021/09/28 09:22:53;;;;;;;5.63;1.05;;;19.00;99.90;;;;;;5055480;28;20017;-86
2021/09/28 09:25:21;;;;;;;7.40;1.17;;;19.40;99.90;;;;;;5037313;28;20025;-86
2021/09/28 09:27:46;;;;;;;5.80;1.27;;;19.40;99.90;;;;;;5037376;28;20033;-86
2021/09/28 09:30:21;;;;;;;8.57;1.48;;;19.30;99.90;;;;;;5037273;28;20111;-86
2021/09/28 09:32:55;;;;;;;7.47;1.20;;;19.30;99.90;;;;;;5037273;28;20029;-86
2021/09/28 09:35:29;;;;;;;5.68;1.33;;;19.30;99.90;;;;;;5037254;28;20029;-86
2021/09/28 09:38:13;;;;;;;8.52;1.33;;;19.20;99.90;;;;;;5054955;28;20025;-86
2021/09/28 09:40:46;;;;;;;7.57;1.45;;;19.60;99.90;;;;;;5037007;28;20074;-86
2021/09/28 09:43:15;;;;;;;5.28;1.05;;;19.40;99.90;;;;;;5037592;28;20088;-86
2021/09/28 09:45:42;;;;;;;7.80;1.23;;;19.00;99.90;;;;;;5037061;28;20040;-86
2021/09/28 09:48:32;;;;;;;5.03;0.98;;;18.80;99.90;;;;;;5036815;28;20052;-86
2021/09/28 09:51:09;;;;;;;4.05;0.90;;;18.60;99.90;;;;;;5036911;28;20021;-86
2021/09/28 09:53:37;;;;;;;5.97;1.40;;;18.70;99.90;;;;;;5036928;28;20083;-86
2021/09/28 09:56:03;;;;;;;3.47;1.13;;;18.60;99.90;;;;;;5036767;28;20519;-86
2021/09/28 09:58:30;;;;;;;4.68;1.02;;;18.90;99.90;;;;;;5054087;28;20021;-86
2021/09/28 10:00:58;;;;;;;7.82;1.40;;;18.80;99.90;;;;;;5054775;28;20516;-86
2021/09/28 10:03:24;;;;;;;3.13;0.90;;;18.70;99.90;;;;;;5036730;28;20021;-88
2021/09/28 10:05:49;;;;;;;5.43;1.13;;;18.80;99.90;;;;;;5054670;28;20021;-86
2021/09/28 10:08:15;;;;;;;7.65;1.40;;;18.80;99.90;;;;;;5042803;28;20530;-86
2021/09/28 10:10:42;;;;;;;8.27;1.10;;;18.90;99.90;;;;;;5043306;28;20391;-85
2021/09/28 10:13:28;;;;;;;3.80;1.15;;;18.90;99.90;;;;;;5037602;28;20029;-86
2021/09/28 10:16:32;;;;;;;6.97;0.90;;;19.00;99.90;;;;;;5037048;28;20095;-86
2021/09/28 10:18:58;;;;;;;7.90;1.40;;;19.00;99.90;;;;;;5036362;28;20017;-86
2021/09/28 10:21:44;;;;;;;6.38;1.40;;;18.70;99.90;;;;;;5054139;28;20508;-86
2021/09/28 10:24:19;;;;;;;3.30;1.08;;;18.60;99.90;;;;;;5036095;28;20041;-86
2021/09/28 10:27:07;;;;;;;5.68;1.23;;;18.60;99.90;;;;;;5036236;28;20017;-86
2021/09/28 10:29:42;;;;;;;6.38;1.20;;;18.80;99.90;;;;;;5053908;28;20029;-86
2021/09/28 10:32:26;;;;;;;4.55;1.02;;;19.00;99.90;;;;;;5035983;28;20124;-86
2021/09/28 10:35:08;;;;;;;7.78;1.08;;;19.70;99.90;;;;;;5036246;28;20025;-86
2021/09/28 10:37:52;;;;;;;9.73;1.25;;;19.40;99.90;;;;;;5036181;28;20112;-86
2021/09/28 10:40:21;;;;;;;4.85;1.02;;;19.10;99.90;;;;;;5054024;28;20024;-86
2021/09/28 10:42:53;;;;;;;4.90;1.40;;;19.10;99.90;;;;;;5035903;28;20500;-86
2021/09/28 10:45:31;;;;;;;5.65;1.15;;;19.30;99.90;;;;;;5035893;28;20025;-86
2021/09/28 10:48:18;;;;;;;8.52;1.20;;;;;;;;;;5035764;28;20033;-86
2021/09/28 10:50:46;;;;;;;7.38;1.30;;;21.30;99.90;;;;;;5036068;28;20108;-84
2021/09/28 10:53:21;;;;;;;4.75;1.10;;;22.50;99.90;;;;;;5035589;28;20032;-86
2021/09/28 10:55:52;;;;;;;7.68;1.10;;;22.40;99.90;;;;;;5053597;28;20431;-86
2021/09/28 10:58:19;;;;;;;6.88;1.38;;;22.20;99.90;;;;;;5053694;28;20508;-86
2021/09/28 11:00:45;;;;;;;5.70;1.40;;;21.50;99.90;;;;;;5036581;28;20082;-86
2021/09/28 11:03:11;;;;;;;5.93;1.25;;;22.10;99.90;;;;;;5035792;28;20037;-86
2021/09/28 11:05:56;;;;;;;6.97;1.20;;;23.10;99.90;;;;;;5035950;28;20500;-86
2021/09/28 11:08:23;;;;;;;7.40;1.33;;;22.90;99.90;;;;;;5034950;28;20029;-86
2021/09/28 11:10:57;;;;;;;3.53;1.08;;;22.90;99.90;;;;;;5035600;28;20029;-86
2021/09/28 11:13:28;;;;;;;2.72;0.95;;;23.20;99.90;;;;;;5035393;28;20119;-86
2021/09/28 11:16:01;;;;;;;3.47;1.00;;;22.60;99.90;;;;;;5036446;28;20032;-86
2021/09/28 11:18:28;;;;;;;3.60;1.10;;;21.90;99.90;;;;;;5035390;28;20025;-86
2021/09/28 11:21:05;;;;;;;6.15;1.60;;;21.00;99.90;;;;;;5035753;28;20025;-86
2021/09/28 11:23:31;;;;;;;7.03;0.90;;;20.90;99.90;;;;;;5035406;28;20392;-86
2021/09/28 11:25:57;;;;;;;3.10;1.00;;;21.10;99.90;;;;;;5035391;28;20021;-86
2021/09/28 11:28:25;;;;;;;6.82;1.42;;;21.40;99.90;;;;;;5035350;28;20491;-86
2021/09/28 11:30:54;;;;;;;6.40;1.10;;;21.70;99.90;;;;;;5035424;28;20491;-86
2021/09/28 11:33:20;;;;;;;2.97;1.00;;;22.50;99.90;;;;;;5053170;28;20388;-86
2021/09/28 11:36:05;;;;;;;10.23;1.20;;;22.70;99.90;;;;;;5035358;28;20025;-86
2021/09/28 11:38:35;;;;;;;5.75;1.20;;;23.10;99.90;;;;;;5035474;28;20028;-86
2021/09/28 11:41:07;;;;;;;5.10;0.85;;;23.30;99.90;;;;;;5035252;28;20021;-86
2021/09/28 11:43:35;;;;;;;8.82;1.38;;;23.70;99.90;;;;;;5035197;28;20420;-86
2021/09/28 11:46:04;;;;;;;4.47;1.20;;;23.60;99.90;;;;;;5035181;28;20028;-86
2021/09/28 11:48:44;;;;;;;3.63;1.13;;;23.90;99.90;;;;;;5035173;28;20021;-86
2021/09/28 11:51:16;;;;;;;7.10;1.10;;;24.30;99.60;;;;;;5035118;28;20017;-83
2021/09/28 11:53:45;;;;;;;7.72;1.33;;;24.40;99.60;;;;;;5035055;28;20025;-86
2021/09/28 11:56:15;;;;;;;6.07;0.98;;;24.90;99.90;;;;;;5035309;28;20056;-86
2021/09/28 11:58:42;;;;;;;2.97;0.90;;;24.70;97.60;;;;;;5053118;28;20044;-86
2021/09/28 12:01:09;;;;;;;5.07;1.05;;;24.70;98.10;;;;;;5035077;28;20025;-86
2021/09/28 12:03:41;;;;;;;11.77;1.77;;;24.60;98.20;;;;;;5034909;28;20028;-86
2021/09/28 12:06:22;;;;;;;5.65;1.23;;;24.70;96.90;;;;;;5053062;28;20049;-86
2021/09/28 12:08:47;;;;;;;7.63;1.30;;;25.00;98.20;;;;;;5035096;28;20025;-86
2021/09/28 12:11:13;;;;;;;8.50;1.10;;;23.30;99.60;;;;;;5034972;28;20028;-86
2021/09/28 12:13:48;;;;;;;5.93;1.15;;;22.50;99.90;;;;;;5019017;28;20049;-85
2021/09/28 12:16:22;;;;;;;7.07;1.77;;;22.00;99.90;;;;;;5035218;28;20028;-86
2021/09/28 12:19:03;;;;;;;4.85;1.13;;;22.70;99.90;;;;;;5038627;28;20029;-86
2021/09/28 12:21:29;;;;;;;10.32;1.65;;;;;;;;;;5047980;28;20028;-86
2021/09/28 12:24:18;;;;;;;4.55;1.10;;;25.00;97.20;;;;;;5041244;28;20025;-86
2021/09/28 12:26:45;;;;;;;6.05;1.48;;;25.70;96.60;;;;;;5057731;28;20071;-86
2021/09/28 12:29:20;;;;;;;3.85;1.00;;;25.80;95.50;;;;;;5056653;28;20021;-86
2021/09/28 12:31:47;;;;;;;5.43;1.30;;;26.10;94.30;;;;;;5038527;28;20583;-86
2021/09/28 12:34:13;;;;;;;6.03;1.20;;;26.00;94.10;;;;;;5038383;28;20491;-86
2021/09/28 12:36:40;;;;;;;8.02;1.60;;;25.50;93.60;;;;;;5038333;28;20021;-86
2021/09/28 12:39:26;;;;;;;4.25;1.08;;;26.00;94.10;;;;;;5038237;28;20024;-87
2021/09/28 12:42:00;;;;;;;5.10;1.13;;;26.20;93.20;;;;;;5038117;28;20039;-86
2021/09/28 12:44:26;;;;;;;5.95;1.48;;;25.30;94.70;;;;;;5038288;28;20488;-86
2021/09/28 12:46:52;;;;;;;4.32;1.20;;;24.80;95.00;;;;;;5038150;28;20033;-85
2021/09/28 12:49:38;;;;;;;3.58;1.27;;;24.20;96.10;;;;;;5038155;28;20029;-86
2021/09/28 12:52:04;;;;;;;6.18;1.13;;;23.80;96.90;;;;;;5055770;28;20056;-86
2021/09/28 12:54:30;;;;;;;2.65;0.80;;;24.00;96.40;;;;;;5038006;28;20064;-86
2021/09/28 12:56:56;;;;;;;7.88;1.48;;;23.60;97.30;;;;;;5037899;28;20116;-85